createdAt,value
2022-12-22T00:01:32.454Z,2.70
2022-12-22T00:04:18.632Z,2.80
2022-12-22T00:07:05.006Z,2.80
2022-12-22T00:09:50.778Z,2.80
2022-12-22T00:12:38.433Z,2.80
2022-12-22T00:15:25.966Z,2.80
2022-12-22T00:18:13.293Z,2.80
2022-12-22T00:20:59.436Z,2.80
2022-12-22T00:23:45.592Z,2.80
2022-12-22T00:26:31.838Z,2.80
2022-12-22T00:29:17.847Z,2.80
2022-12-22T00:32:04.703Z,2.80
2022-12-22T00:34:58.641Z,2.80
2022-12-22T00:37:48.532Z,2.80
2022-12-22T00:40:36.245Z,2.70
2022-12-22T00:43:22.695Z,2.60
2022-12-22T00:46:10.075Z,2.60
2022-12-22T00:48:57.953Z,2.50
2022-12-22T00:51:45.960Z,2.40
2022-12-22T00:54:33.926Z,2.40
2022-12-22T00:57:21.140Z,2.50
2022-12-22T01:00:09.341Z,2.50
2022-12-22T01:02:55.346Z,2.60
2022-12-22T01:05:41.633Z,2.60
2022-12-22T01:08:30.641Z,2.60
2022-12-22T01:11:16.738Z,2.70
2022-12-22T01:14:02.635Z,2.70
2022-12-22T01:16:48.424Z,2.70
2022-12-22T01:19:34.671Z,2.70
2022-12-22T01:22:21.418Z,2.70
2022-12-22T01:25:08.857Z,2.70
2022-12-22T01:27:54.903Z,2.70
2022-12-22T01:30:41.230Z,2.60
2022-12-22T01:33:30.619Z,2.60
2022-12-22T01:36:17.066Z,2.50
2022-12-22T01:39:03.145Z,2.50
2022-12-22T01:41:50.470Z,2.40
2022-12-22T01:44:37.250Z,2.40
2022-12-22T01:47:53.873Z,2.30
2022-12-22T01:50:45.468Z,2.30
2022-12-22T01:53:35.965Z,2.30
2022-12-22T01:56:22.676Z,2.30
2022-12-22T01:59:13.435Z,2.30
2022-12-22T02:02:01.113Z,2.20
2022-12-22T02:04:51.214Z,2.20
2022-12-22T02:07:47.471Z,2.10
2022-12-22T02:10:52.203Z,2.10
2022-12-22T02:13:46.842Z,2.10
2022-12-22T02:17:03.635Z,2.10
2022-12-22T02:20:12.474Z,2.00
2022-12-22T02:23:08.728Z,2.00
2022-12-22T02:26:00.994Z,2.10
2022-12-22T02:28:51.273Z,2.10
2022-12-22T02:31:37.407Z,2.00
2022-12-22T02:34:23.580Z,2.00
2022-12-22T02:37:16.466Z,2.00
2022-12-22T02:40:12.333Z,2.00
2022-12-22T02:43:06.281Z,2.00
2022-12-22T02:46:02.734Z,2.00
2022-12-22T02:48:55.937Z,2.00
2022-12-22T02:51:45.803Z,2.10
2022-12-22T02:54:34.953Z,2.10
2022-12-22T02:57:22.227Z,2.10
2022-12-22T03:00:08.270Z,2.20
2022-12-22T03:02:56.121Z,2.20
2022-12-22T03:05:42.104Z,2.20
2022-12-22T03:08:28.050Z,2.30
2022-12-22T03:11:14.131Z,2.30
2022-12-22T03:14:00.381Z,2.30
2022-12-22T03:16:46.536Z,2.30
2022-12-22T03:19:33.667Z,2.30
2022-12-22T03:22:20.036Z,2.30
2022-12-22T03:25:05.747Z,2.30
2022-12-22T03:27:34.706Z,2.40
2022-12-22T03:30:03.642Z,2.40
2022-12-22T03:32:32.428Z,2.40
2022-12-22T03:35:02.484Z,2.40
2022-12-22T03:37:32.009Z,2.40
2022-12-22T03:40:00.737Z,2.40
2022-12-22T03:42:48.382Z,2.40
2022-12-22T03:45:34.629Z,2.40
2022-12-22T03:48:03.255Z,2.40
2022-12-22T03:50:33.347Z,2.40
2022-12-22T03:53:02.114Z,2.40
2022-12-22T03:55:30.794Z,2.40
2022-12-22T03:57:59.564Z,2.40
2022-12-22T04:00:28.184Z,2.30
2022-12-22T04:02:59.430Z,2.30
2022-12-22T04:05:28.219Z,2.30
2022-12-22T04:07:58.187Z,2.20
2022-12-22T04:10:44.477Z,2.20
2022-12-22T04:13:13.227Z,2.30
2022-12-22T04:15:41.909Z,2.30
2022-12-22T04:18:10.665Z,2.30
2022-12-22T04:20:39.386Z,2.40
2022-12-22T04:23:09.494Z,2.40
2022-12-22T04:25:38.232Z,2.40
2022-12-22T04:28:06.975Z,2.50
2022-12-22T04:30:35.654Z,2.50
2022-12-22T04:33:04.440Z,2.50
2022-12-22T04:35:33.075Z,2.50
2022-12-22T04:38:03.114Z,2.50
2022-12-22T04:40:33.213Z,2.60
2022-12-22T04:43:01.901Z,2.60
2022-12-22T04:45:30.612Z,2.60
2022-12-22T04:47:59.319Z,2.60
2022-12-22T04:50:28.382Z,2.60
2022-12-22T04:52:56.990Z,2.60
2022-12-22T04:55:25.612Z,2.60
2022-12-22T04:57:55.661Z,2.60
2022-12-22T05:00:24.492Z,2.70
2022-12-22T05:02:54.385Z,2.70
2022-12-22T05:05:23.262Z,2.70
2022-12-22T05:07:51.911Z,2.60
2022-12-22T05:10:20.592Z,2.60
2022-12-22T05:12:58.194Z,2.60
2022-12-22T05:15:30.059Z,2.60
2022-12-22T05:18:00.199Z,2.50
2022-12-22T05:20:29.928Z,2.50
2022-12-22T05:22:59.293Z,2.50
2022-12-22T05:25:34.469Z,2.50
2022-12-22T05:28:04.029Z,2.50
2022-12-22T05:30:34.372Z,2.50
2022-12-22T05:33:03.097Z,2.50
2022-12-22T05:35:31.766Z,2.60
2022-12-22T05:38:00.431Z,2.60
2022-12-22T05:40:29.205Z,2.60
2022-12-22T05:42:57.874Z,2.60
2022-12-22T05:45:26.575Z,2.60
2022-12-22T05:47:56.647Z,2.50
2022-12-22T05:50:26.866Z,2.50
2022-12-22T05:53:15.856Z,2.50
2022-12-22T05:55:44.554Z,2.40
2022-12-22T05:58:13.260Z,2.40
2022-12-22T06:00:41.987Z,2.40
2022-12-22T06:03:12.182Z,2.30
2022-12-22T06:05:41.339Z,2.30
2022-12-22T06:08:10.198Z,2.30
2022-12-22T06:10:38.846Z,2.20
2022-12-22T06:13:07.529Z,2.20
2022-12-22T06:15:36.280Z,2.30
2022-12-22T06:18:07.648Z,2.20
2022-12-22T06:20:37.766Z,2.20
2022-12-22T06:23:06.565Z,2.30
2022-12-22T06:25:35.316Z,2.30
2022-12-22T06:28:04.034Z,2.30
2022-12-22T06:30:34.087Z,2.30
2022-12-22T06:33:03.877Z,2.40
2022-12-22T06:35:32.696Z,2.40
2022-12-22T06:38:03.313Z,2.40
2022-12-22T06:40:31.946Z,2.40
2022-12-22T06:43:11.354Z,2.40
2022-12-22T06:45:42.341Z,2.40
2022-12-22T06:48:12.478Z,2.40
2022-12-22T06:50:41.252Z,2.50
2022-12-22T06:53:11.874Z,2.50
2022-12-22T06:55:40.586Z,2.50
2022-12-22T06:58:09.294Z,2.50
2022-12-22T07:00:38.094Z,2.50
2022-12-22T07:03:07.033Z,2.50
2022-12-22T07:05:35.897Z,2.50
2022-12-22T07:08:08.898Z,2.50
2022-12-22T07:10:57.567Z,2.50
2022-12-22T07:13:27.969Z,2.50
2022-12-22T07:16:01.116Z,2.50
2022-12-22T07:18:31.447Z,2.50
2022-12-22T07:21:01.500Z,2.50
2022-12-22T07:23:30.840Z,2.60
2022-12-22T07:26:01.382Z,2.60
2022-12-22T07:28:30.061Z,2.60
2022-12-22T07:30:58.768Z,2.60
2022-12-22T07:33:27.603Z,2.60
2022-12-22T07:36:04.892Z,2.70
2022-12-22T07:38:35.833Z,2.70
2022-12-22T07:41:27.122Z,2.70
2022-12-22T07:43:55.780Z,2.70
2022-12-22T07:46:25.925Z,2.70
2022-12-22T07:49:12.628Z,2.70
2022-12-22T07:51:42.995Z,2.80
2022-12-22T07:54:13.258Z,2.90
2022-12-22T07:56:44.389Z,3.00
2022-12-22T07:59:13.864Z,3.20
2022-12-22T08:01:43.166Z,3.30
2022-12-22T08:04:12.443Z,3.50
2022-12-22T08:06:41.278Z,3.60
2022-12-22T08:09:10.556Z,3.70
2022-12-22T08:11:39.181Z,3.80
2022-12-22T08:14:09.983Z,3.90
2022-12-22T08:16:38.850Z,4.00
2022-12-22T08:19:07.458Z,4.00
2022-12-22T08:21:36.140Z,4.10
2022-12-22T08:24:04.958Z,4.10
2022-12-22T08:26:38.124Z,4.10
2022-12-22T08:29:13.991Z,4.10
2022-12-22T08:31:43.953Z,4.10
2022-12-22T08:34:16.294Z,4.20
2022-12-22T08:36:48.907Z,4.20
2022-12-22T08:39:20.013Z,4.30
2022-12-22T08:41:51.993Z,4.40
2022-12-22T08:44:24.317Z,4.50
2022-12-22T08:46:53.942Z,4.60
2022-12-22T08:49:23.375Z,4.60
2022-12-22T08:51:52.769Z,4.50
2022-12-22T08:54:22.524Z,4.50
2022-12-22T08:56:51.448Z,4.40
2022-12-22T08:59:21.836Z,4.40
2022-12-22T09:01:53.242Z,4.30
2022-12-22T09:04:24.514Z,4.40
2022-12-22T09:06:54.539Z,4.50
2022-12-22T09:09:23.333Z,4.50
2022-12-22T09:11:52.377Z,4.50
2022-12-22T09:14:22.537Z,4.60
2022-12-22T09:16:52.192Z,4.70
2022-12-22T09:19:25.486Z,4.80
2022-12-22T09:21:54.236Z,4.90
2022-12-22T09:24:23.452Z,4.90
2022-12-22T09:26:52.236Z,4.90
2022-12-22T09:29:23.026Z,4.90
2022-12-22T09:31:51.839Z,4.90
2022-12-22T09:34:20.547Z,4.90
2022-12-22T09:36:49.321Z,4.90
2022-12-22T09:39:25.024Z,4.90
2022-12-22T09:41:59.305Z,4.90
2022-12-22T09:44:34.546Z,4.90
2022-12-22T09:47:07.011Z,4.90
2022-12-22T09:49:35.746Z,4.80
2022-12-22T09:52:05.999Z,4.80
2022-12-22T09:54:34.795Z,4.80
2022-12-22T09:57:03.635Z,4.80
2022-12-22T09:59:34.728Z,4.80
2022-12-22T10:02:14.540Z,4.80
2022-12-22T10:04:57.819Z,4.80
2022-12-22T10:07:32.395Z,4.80
2022-12-22T10:10:09.704Z,4.80
2022-12-22T10:12:38.516Z,4.80
2022-12-22T10:15:16.995Z,4.80
2022-12-22T10:17:51.920Z,4.80
2022-12-22T10:20:26.609Z,4.80
2022-12-22T10:22:58.871Z,4.80
2022-12-22T10:28:25.508Z,4.70
2022-12-22T10:31:12.331Z,4.60
2022-12-22T10:33:46.717Z,4.60
2022-12-22T10:36:20.931Z,4.60
2022-12-22T10:39:03.072Z,4.60
2022-12-22T10:41:36.072Z,4.60
2022-12-22T10:44:09.475Z,4.60
2022-12-22T10:46:43.564Z,4.70
2022-12-22T10:49:20.353Z,4.70
2022-12-22T10:51:51.899Z,4.90
2022-12-22T10:54:32.648Z,4.90
2022-12-22T10:57:07.388Z,5.00
2022-12-22T10:59:49.955Z,5.10
2022-12-22T11:02:33.457Z,5.20
2022-12-22T11:05:08.419Z,5.20
2022-12-22T11:07:39.411Z,5.20
2022-12-22T11:10:20.088Z,5.20
2022-12-22T11:13:09.422Z,5.20
2022-12-22T11:15:46.743Z,5.20
2022-12-22T11:18:31.371Z,5.20
2022-12-22T11:21:04.277Z,5.20
2022-12-22T11:23:40.413Z,5.20
2022-12-22T11:26:17.412Z,5.20
2022-12-22T11:29:02.046Z,5.10
2022-12-22T11:31:53.224Z,5.10
2022-12-22T11:34:42.221Z,5.00
2022-12-22T11:37:22.695Z,4.90
2022-12-22T11:39:59.434Z,5.00
2022-12-22T11:42:48.280Z,4.90
2022-12-22T11:45:37.608Z,4.90
2022-12-22T11:48:28.550Z,5.00
2022-12-22T11:51:10.008Z,5.00
2022-12-22T11:54:04.104Z,5.00
2022-12-22T11:56:40.024Z,5.00
2022-12-22T11:59:25.003Z,5.00
2022-12-22T12:02:26.353Z,5.00
2022-12-22T12:05:19.903Z,5.00
2022-12-22T12:07:55.615Z,5.00
2022-12-22T12:10:28.152Z,4.90
2022-12-22T12:13:05.592Z,4.90
2022-12-22T12:15:38.756Z,4.90
2022-12-22T12:18:31.479Z,4.90
2022-12-22T12:21:11.983Z,4.90
2022-12-22T12:23:58.861Z,4.90
2022-12-22T12:26:32.629Z,4.80
2022-12-22T12:29:14.933Z,4.80
2022-12-22T12:31:48.332Z,4.70
2022-12-22T12:34:20.154Z,4.70
2022-12-22T12:36:54.126Z,4.60
2022-12-22T12:39:34.848Z,4.60
2022-12-22T12:42:18.327Z,4.50
2022-12-22T12:44:48.218Z,4.50
2022-12-22T12:47:26.637Z,4.50
2022-12-22T12:50:03.922Z,4.50
2022-12-22T12:53:05.518Z,4.40
2022-12-22T12:55:53.928Z,4.40
2022-12-22T12:58:58.361Z,4.40
2022-12-22T13:01:55.185Z,4.40
2022-12-22T13:05:14.935Z,4.40
2022-12-22T13:08:05.898Z,4.40
2022-12-22T13:10:43.276Z,4.40
2022-12-22T13:13:14.909Z,4.40
2022-12-22T13:15:45.303Z,4.30
2022-12-22T13:18:49.364Z,4.30
2022-12-22T13:24:25.312Z,4.30
2022-12-22T13:27:01.921Z,4.30
2022-12-22T13:29:42.907Z,4.30
2022-12-22T13:32:23.232Z,4.30
2022-12-22T13:37:50.794Z,4.30
2022-12-22T13:40:21.834Z,4.30
2022-12-22T13:42:54.318Z,4.30
2022-12-22T13:45:39.274Z,4.30
2022-12-22T13:48:14.115Z,4.30
2022-12-22T13:50:46.358Z,4.30
2022-12-22T13:53:49.962Z,4.30
2022-12-22T13:56:15.335Z,4.20
2022-12-22T13:58:48.077Z,4.20
2022-12-22T14:01:20.563Z,4.20
2022-12-22T14:04:01.382Z,4.20
2022-12-22T14:06:33.146Z,4.20
2022-12-22T14:09:17.260Z,4.20
2022-12-22T14:11:52.539Z,4.20
2022-12-22T14:14:27.961Z,4.20
2022-12-22T14:16:58.761Z,4.20
2022-12-22T14:19:32.150Z,4.20
2022-12-22T14:22:05.760Z,4.20
2022-12-22T14:24:43.235Z,4.20
2022-12-22T14:27:21.455Z,4.20
2022-12-22T14:29:52.411Z,4.20
2022-12-22T14:32:39.920Z,4.20
2022-12-22T14:35:25.970Z,4.20
2022-12-22T14:37:57.169Z,4.10
2022-12-22T14:40:35.704Z,4.10
2022-12-22T14:43:07.027Z,4.10
2022-12-22T14:45:37.184Z,4.10
2022-12-22T14:48:10.474Z,4.00
2022-12-22T14:50:40.587Z,4.00
2022-12-22T14:53:17.027Z,4.00
2022-12-22T14:55:51.355Z,4.00
2022-12-22T14:58:23.405Z,4.00
2022-12-22T15:01:14.597Z,4.00
2022-12-22T15:03:44.023Z,4.00
2022-12-22T15:06:36.295Z,4.00
2022-12-22T15:10:03.573Z,4.00
2022-12-22T15:12:18.161Z,4.00
2022-12-22T15:14:49.192Z,4.00
2022-12-22T15:17:23.877Z,4.00
2022-12-22T15:19:53.325Z,4.00
2022-12-22T15:22:22.020Z,3.90
2022-12-22T15:24:50.726Z,3.90
2022-12-22T15:27:19.424Z,3.90
2022-12-22T15:29:51.806Z,3.90
2022-12-22T15:32:22.132Z,3.90
2022-12-22T15:34:50.822Z,3.90
2022-12-22T15:37:19.634Z,3.90
2022-12-22T15:39:48.722Z,3.80
2022-12-22T15:42:17.441Z,3.80
2022-12-22T15:44:46.120Z,3.80
2022-12-22T15:47:14.989Z,3.80
2022-12-22T15:49:46.194Z,3.80
2022-12-22T15:52:15.000Z,3.80
2022-12-22T15:54:44.286Z,3.80
2022-12-22T15:57:14.509Z,3.80
2022-12-22T15:59:43.235Z,3.90
2022-12-22T16:02:13.518Z,3.90
2022-12-22T16:04:42.532Z,3.90
2022-12-22T16:07:13.528Z,3.90
2022-12-22T16:09:44.224Z,4.00
2022-12-22T16:12:19.716Z,4.00
2022-12-22T16:14:51.173Z,4.00
2022-12-22T16:17:21.263Z,4.10
2022-12-22T16:19:50.058Z,4.10
2022-12-22T16:22:21.902Z,4.10
2022-12-22T16:24:52.267Z,4.10
2022-12-22T16:27:21.016Z,4.20
2022-12-22T16:29:54.153Z,4.20
2022-12-22T16:32:27.584Z,4.20
2022-12-22T16:35:02.370Z,4.20
2022-12-22T16:37:33.443Z,4.20
2022-12-22T16:40:02.280Z,4.20
2022-12-22T16:45:22.722Z,4.30
2022-12-22T16:47:53.386Z,4.30
2022-12-22T16:50:27.635Z,4.40
2022-12-22T16:52:57.645Z,4.40
2022-12-22T16:55:26.335Z,4.50
2022-12-22T16:57:55.064Z,4.50
2022-12-22T17:00:25.479Z,4.50
2022-12-22T17:02:57.207Z,4.50
2022-12-22T17:05:30.194Z,4.50
2022-12-22T17:08:02.795Z,4.50
2022-12-22T17:10:31.531Z,4.50
2022-12-22T17:13:00.948Z,4.60
2022-12-22T17:15:29.843Z,4.60
2022-12-22T17:17:58.701Z,4.60
2022-12-22T17:20:29.541Z,4.60
2022-12-22T17:23:01.961Z,4.60
2022-12-22T17:25:32.513Z,4.70
2022-12-22T17:28:03.462Z,4.60
2022-12-22T17:30:32.333Z,4.60
2022-12-22T17:33:01.061Z,4.60
2022-12-22T17:35:33.363Z,4.50
2022-12-22T17:38:03.475Z,4.50
2022-12-22T17:40:32.213Z,4.50
2022-12-22T17:43:01.062Z,4.50
2022-12-22T17:45:29.853Z,4.50
2022-12-22T17:47:59.127Z,4.50
2022-12-22T17:50:28.106Z,4.50
2022-12-22T17:52:57.443Z,4.50
2022-12-22T17:56:06.068Z,4.50
2022-12-22T17:58:19.033Z,4.50
2022-12-22T18:00:47.802Z,4.50
2022-12-22T18:03:16.902Z,4.40
2022-12-22T18:05:48.736Z,4.40
2022-12-22T18:08:21.454Z,4.40
2022-12-22T18:10:51.696Z,4.40
2022-12-22T18:13:25.242Z,4.40
2022-12-22T18:15:55.998Z,4.40
2022-12-22T18:18:24.945Z,4.40
2022-12-22T18:21:06.437Z,4.30
2022-12-22T18:23:38.340Z,4.30
2022-12-22T18:26:10.055Z,4.30
2022-12-22T18:28:39.054Z,4.30
2022-12-22T18:31:09.022Z,4.20
2022-12-22T18:33:37.873Z,4.20
2022-12-22T18:36:07.244Z,4.20
2022-12-22T18:38:36.524Z,4.20
2022-12-22T18:41:05.524Z,4.20
2022-12-22T18:43:35.700Z,4.20
2022-12-22T18:46:04.375Z,4.30
2022-12-22T18:48:33.287Z,4.30
2022-12-22T18:51:02.008Z,4.30
2022-12-22T18:53:32.692Z,4.30
2022-12-22T18:56:01.487Z,4.40
2022-12-22T18:58:30.275Z,4.40
2022-12-22T19:01:00.721Z,4.40
2022-12-22T19:03:31.334Z,4.40
2022-12-22T19:06:00.371Z,4.40
2022-12-22T19:08:31.545Z,4.40
2022-12-22T19:11:04.395Z,4.40
2022-12-22T19:13:36.635Z,4.40
2022-12-22T19:16:08.130Z,4.40
2022-12-22T19:18:36.850Z,4.40
2022-12-22T19:21:05.817Z,4.40
2022-12-22T19:23:34.629Z,4.40
2022-12-22T19:26:08.869Z,4.40
2022-12-22T19:28:40.253Z,4.40
2022-12-22T19:31:17.581Z,4.40
2022-12-22T19:33:46.693Z,4.40
2022-12-22T19:36:18.207Z,4.40
2022-12-22T19:38:50.764Z,4.40
2022-12-22T19:41:39.870Z,4.40
2022-12-22T19:44:19.414Z,4.40
2022-12-22T19:46:50.228Z,4.40
2022-12-22T19:49:20.817Z,4.40
2022-12-22T19:51:49.942Z,4.40
2022-12-22T19:54:19.578Z,4.40
2022-12-22T19:56:51.915Z,4.50
2022-12-22T19:59:29.518Z,4.50
2022-12-22T20:02:02.011Z,4.50
2022-12-22T20:04:30.775Z,4.50
2022-12-22T20:06:59.732Z,4.50
2022-12-22T20:09:30.832Z,4.50
2022-12-22T20:11:59.526Z,4.50
2022-12-22T20:14:28.287Z,4.50
2022-12-22T20:16:56.971Z,4.50
2022-12-22T20:19:27.100Z,4.50
2022-12-22T20:21:55.818Z,4.50
2022-12-22T20:24:25.828Z,4.60
2022-12-22T20:26:55.052Z,4.60
2022-12-22T20:29:25.438Z,4.60
2022-12-22T20:31:54.343Z,4.60
2022-12-22T20:34:23.273Z,4.60
2022-12-22T20:36:53.370Z,4.60
2022-12-22T20:39:22.051Z,4.60
2022-12-22T20:41:53.648Z,4.60
2022-12-22T20:44:23.757Z,4.60
2022-12-22T20:46:52.439Z,4.50
2022-12-22T20:49:21.320Z,4.60
2022-12-22T20:51:50.137Z,4.60
2022-12-22T20:54:20.260Z,4.60
2022-12-22T20:56:49.092Z,4.60
2022-12-22T20:59:21.006Z,4.60
2022-12-22T21:01:51.009Z,4.60
2022-12-22T21:04:20.237Z,4.60
2022-12-22T21:06:53.892Z,4.60
2022-12-22T21:09:28.223Z,4.60
2022-12-22T21:11:57.039Z,4.50
2022-12-22T21:14:25.705Z,4.50
2022-12-22T21:16:55.300Z,4.50
2022-12-22T21:19:24.057Z,4.50
2022-12-22T21:21:52.865Z,4.40
2022-12-22T21:24:21.618Z,4.50
2022-12-22T21:26:54.167Z,4.40
2022-12-22T21:29:26.300Z,4.50
2022-12-22T21:31:55.559Z,4.50
2022-12-22T21:34:24.588Z,4.50
2022-12-22T21:37:00.740Z,4.50
2022-12-22T21:39:33.711Z,4.50
2022-12-22T21:42:05.276Z,4.50
2022-12-22T21:44:35.580Z,4.50
2022-12-22T21:47:04.928Z,4.40
2022-12-22T21:49:34.598Z,4.40
2022-12-22T21:52:03.449Z,4.40
2022-12-22T21:54:32.174Z,4.30
2022-12-22T21:57:00.935Z,4.30
2022-12-22T21:59:31.003Z,4.20
2022-12-22T22:01:59.778Z,4.20
2022-12-22T22:04:28.553Z,4.20
2022-12-22T22:06:58.034Z,4.20
2022-12-22T22:09:26.726Z,4.20
2022-12-22T22:12:13.089Z,4.20
2022-12-22T22:14:43.136Z,4.20
2022-12-22T22:17:12.595Z,4.30
2022-12-22T22:19:41.197Z,4.30
2022-12-22T22:22:09.804Z,4.30
2022-12-22T22:24:38.455Z,4.40
2022-12-22T22:27:07.226Z,4.40
2022-12-22T22:29:36.167Z,4.50
2022-12-22T22:32:06.873Z,4.60
2022-12-22T22:34:35.626Z,4.80
2022-12-22T22:37:04.321Z,4.90
2022-12-22T22:39:33.048Z,5.00
2022-12-22T22:42:01.700Z,5.10
2022-12-22T22:44:30.460Z,5.20
2022-12-22T22:46:59.247Z,5.20
2022-12-22T22:49:29.513Z,5.40
2022-12-22T22:51:58.450Z,5.60
2022-12-22T22:54:27.240Z,5.70
2022-12-22T22:56:55.979Z,5.90
2022-12-22T22:59:24.745Z,6.00
2022-12-22T23:01:53.541Z,6.10
2022-12-22T23:04:22.408Z,6.10
2022-12-22T23:06:52.544Z,6.20
2022-12-22T23:09:21.194Z,6.20
2022-12-22T23:11:52.244Z,6.20
2022-12-22T23:14:21.673Z,6.20
2022-12-22T23:16:50.517Z,6.20
2022-12-22T23:19:19.659Z,6.20
2022-12-22T23:21:48.433Z,6.20
2022-12-22T23:24:19.072Z,6.20
2022-12-22T23:26:47.791Z,6.30
2022-12-22T23:29:16.634Z,6.20
2022-12-22T23:31:45.384Z,6.30
2022-12-22T23:34:14.685Z,6.20
2022-12-22T23:36:43.352Z,6.30
2022-12-22T23:39:12.097Z,6.20
2022-12-22T23:41:42.201Z,6.30
2022-12-22T23:44:11.675Z,6.20
2022-12-22T23:46:41.508Z,6.30
2022-12-22T23:49:13.085Z,6.20
2022-12-22T23:51:41.951Z,6.20
2022-12-22T23:54:10.564Z,6.10
2022-12-22T23:56:39.307Z,6.10
2022-12-22T23:59:09.310Z,6.10
